Time;durP1;ratioP1;P1;durP2;ratioP2;P2;SDS_P1;SDS_P2;PMS_P1;PMS_P2;Temp;Humidity;BMP_temperature;BMP_pressure;BME280_temperature;BME280_humidity;BME280_pressure;Samples;Min_cycle;Max_cycle;Signal;HPM_P1;HPM_P2
2022/05/27 00:02:03;;;;;;;4.07;1.80;;;24.90;48.50;;;;;;4926799;28;88450;-75
2022/05/27 00:04:31;;;;;;;4.70;1.07;;;24.90;48.50;;;;;;4933583;28;89481;-75
2022/05/27 00:06:59;;;;;;;4.07;1.23;;;24.90;48.50;;;;;;4942531;28;89136;-75
2022/05/27 00:09:28;;;;;;;3.70;1.63;;;24.90;49.20;;;;;;4940192;28;88483;-75
2022/05/27 00:11:57;;;;;;;3.93;1.07;;;24.90;48.60;;;;;;4927292;28;88453;-75
2022/05/27 00:14:25;;;;;;;1.70;1.00;;;24.90;48.60;;;;;;4921709;28;90117;-73
2022/05/27 00:16:53;;;;;;;3.93;1.40;;;24.90;48.60;;;;;;4925518;28;92073;-74
2022/05/27 00:19:21;;;;;;;3.63;1.27;;;24.90;48.60;;;;;;4928374;28;88281;-75
2022/05/27 00:21:49;;;;;;;3.07;0.93;;;24.90;48.60;;;;;;4943775;28;88363;-75
2022/05/27 00:24:18;;;;;;;8.63;1.67;;;24.90;48.60;;;;;;4935723;28;89529;-74
2022/05/27 00:26:46;;;;;;;4.07;1.40;;;24.90;48.60;;;;;;4927348;28;88959;-75
2022/05/27 00:29:15;;;;;;;5.13;1.20;;;24.90;48.70;;;;;;4931865;28;88412;-75
2022/05/27 00:31:43;;;;;;;6.93;1.50;;;24.90;48.70;;;;;;4942504;28;88374;-75
2022/05/27 00:34:13;;;;;;;4.07;1.20;;;24.90;48.70;;;;;;4936901;28;90188;-75
2022/05/27 00:36:41;;;;;;;4.73;1.20;;;24.90;48.70;;;;;;4933412;28;89619;-75
2022/05/27 00:39:09;;;;;;;6.23;1.57;;;24.90;48.70;;;;;;4924724;28;89920;-75
2022/05/27 00:41:37;;;;;;;2.53;0.97;;;24.90;48.70;;;;;;4922169;28;88552;-75
2022/05/27 00:44:05;;;;;;;3.07;0.80;;;24.90;48.70;;;;;;4923909;28;89706;-74
2022/05/27 00:46:35;;;;;;;2.80;0.90;;;24.90;48.70;;;;;;4926765;28;92154;-75
2022/05/27 00:49:06;;;;;;;2.43;0.87;;;24.90;48.80;;;;;;4934406;28;89937;-75
2022/05/27 00:51:35;;;;;;;8.13;1.60;;;24.90;48.80;;;;;;4931171;28;88647;-75
2022/05/27 00:54:08;;;;;;;4.97;1.30;;;24.90;48.80;;;;;;4936329;28;89899;-75
2022/05/27 00:56:39;;;;;;;8.50;1.80;;;24.90;48.80;;;;;;4927954;28;91075;-75
2022/05/27 00:59:08;;;;;;;4.57;1.10;;;24.90;48.80;;;;;;4921943;28;88756;-75
2022/05/27 01:01:38;;;;;;;3.60;1.40;;;24.90;48.90;;;;;;4938365;28;88644;-75
2022/05/27 01:04:06;;;;;;;4.93;1.23;;;24.80;48.80;;;;;;4933706;28;88494;-75
2022/05/27 01:06:34;;;;;;;3.20;1.30;;;24.90;48.90;;;;;;4932330;28;89035;-74
2022/05/27 01:09:02;;;;;;;4.43;0.80;;;24.90;48.90;;;;;;4911112;28;88470;-75
2022/05/27 01:11:38;;;;;;;4.33;1.17;;;24.90;48.90;;;;;;4930705;28;88313;-75
2022/05/27 01:14:14;;;;;;;6.17;1.10;;;24.90;48.90;;;;;;4934006;28;90564;-75
2022/05/27 01:16:48;;;;;;;9.50;1.50;;;24.90;48.90;;;;;;4926555;28;88840;-74
2022/05/27 01:22:43;;;;;;;3.07;1.00;;;24.80;48.80;;;;;;4928177;28;88578;-75
2022/05/27 01:25:41;;;;;;;4.30;1.30;;;24.80;48.80;;;;;;4932572;28;90015;-75
2022/05/27 01:28:28;;;;;;;2.07;0.90;;;24.80;48.80;;;;;;4906625;28;88802;-74
2022/05/27 01:31:01;;;;;;;3.63;0.97;;;24.80;48.80;;;;;;4933808;28;88444;-75
2022/05/27 01:33:35;;;;;;;7.93;1.20;;;24.80;48.80;;;;;;4940105;28;88699;-74
2022/05/27 01:36:07;;;;;;;5.83;1.00;;;24.80;48.80;;;;;;4937808;28;93582;-74
2022/05/27 01:38:38;;;;;;;1.60;0.87;;;24.80;48.80;;;;;;4936149;28;90050;-74
2022/05/27 01:41:09;;;;;;;4.93;1.33;;;24.80;48.80;;;;;;4939022;28;88497;-74
2022/05/27 01:43:40;;;;;;;5.00;1.20;;;24.80;48.80;;;;;;4942081;28;88684;-74
2022/05/27 01:46:12;;;;;;;1.83;0.83;;;24.80;48.80;;;;;;4924449;28;89549;-74
2022/05/27 01:48:44;;;;;;;2.10;0.90;;;24.80;48.80;;;;;;4925518;28;88828;-75
2022/05/27 01:51:15;;;;;;;2.90;1.13;;;24.80;49.50;;;;;;4924956;28;88232;-75
2022/05/27 01:53:45;;;;;;;6.13;1.23;;;24.80;48.80;;;;;;4935650;28;88716;-75
2022/05/27 01:56:15;;;;;;;2.03;0.90;;;24.80;48.80;;;;;;4925121;28;89516;-75
2022/05/27 01:58:45;;;;;;;2.13;1.27;;;24.80;48.80;;;;;;4933240;28;89316;-75
2022/05/27 02:01:17;;;;;;;4.60;1.13;;;24.80;48.80;;;;;;4905561;28;88628;-74
2022/05/27 02:03:46;;;;;;;3.40;0.87;;;24.80;48.80;;;;;;4905698;28;88498;-75
2022/05/27 02:06:16;;;;;;;1.60;0.87;;;24.80;48.80;;;;;;4905918;28;89971;-75
2022/05/27 02:08:47;;;;;;;5.03;1.10;;;24.80;48.80;;;;;;4909903;28;89277;-75
2022/05/27 02:11:17;;;;;;;1.20;0.90;;;24.80;48.80;;;;;;4924523;28;88617;-75
2022/05/27 02:13:48;;;;;;;1.07;0.63;;;24.80;48.80;;;;;;4925810;28;88818;-74
2022/05/27 02:16:19;;;;;;;4.33;1.10;;;24.80;48.80;;;;;;4925586;28;89529;-75
2022/05/27 02:18:49;;;;;;;1.80;0.70;;;24.80;48.80;;;;;;4924937;28;90449;-75
2022/05/27 02:21:19;;;;;;;3.10;0.80;;;24.80;48.80;;;;;;4931980;28;88361;-75
2022/05/27 02:23:49;;;;;;;2.03;1.03;;;24.80;48.80;;;;;;4935744;28;88701;-75
2022/05/27 02:26:20;;;;;;;3.27;1.17;;;24.80;48.70;;;;;;4931540;28;91136;-74
2022/05/27 02:28:50;;;;;;;3.00;0.80;;;24.80;48.80;;;;;;4926405;28;88761;-73
2022/05/27 02:31:21;;;;;;;2.60;0.83;;;24.80;48.80;;;;;;4929754;28;88389;-76
2022/05/27 02:36:39;;;;;;;3.70;1.23;;;24.80;48.70;;;;;;4919444;28;90696;-75
2022/05/27 02:39:07;;;;;;;3.50;0.97;;;24.70;48.70;;;;;;4923762;28;92875;-76
2022/05/27 02:41:38;;;;;;;1.53;0.83;;;24.80;48.70;;;;;;4934416;28;88649;-75
2022/05/27 02:44:17;;;;;;;2.23;0.83;;;24.70;48.70;;;;;;4940024;28;88645;-74
2022/05/27 02:46:50;;;;;;;4.00;1.17;;;24.70;48.70;;;;;;4943996;28;91297;-75
2022/05/27 02:49:22;;;;;;;3.37;0.90;;;24.70;48.70;;;;;;4930231;28;89978;-73
2022/05/27 02:51:56;;;;;;;2.20;1.10;;;24.70;48.70;;;;;;4926870;28;88922;-76
2022/05/27 02:54:25;;;;;;;2.77;0.70;;;24.70;48.70;;;;;;4944015;28;88613;-76
2022/05/27 02:56:58;;;;;;;2.33;0.90;;;24.70;48.70;;;;;;4941084;28;89758;-75
2022/05/27 02:59:26;;;;;;;2.43;0.97;;;24.40;48.40;;;;;;4908770;28;91052;-75
2022/05/27 03:02:02;;;;;;;1.97;0.60;;;24.80;48.70;;;;;;4920225;28;88469;-74
2022/05/27 03:04:30;;;;;;;4.73;1.20;;;24.70;48.70;;;;;;4920805;28;88789;-75
2022/05/27 03:07:01;;;;;;;3.70;1.60;;;24.70;48.70;;;;;;4921910;28;90680;-75
2022/05/27 03:09:34;;;;;;;3.60;1.27;;;24.70;48.70;;;;;;4918264;28;88974;-75
2022/05/27 03:12:06;;;;;;;2.13;1.23;;;24.70;48.70;;;;;;4922422;28;88560;-75
2022/05/27 03:14:44;;;;;;;4.70;1.53;;;24.70;48.70;;;;;;4921869;28;88900;-74
2022/05/27 03:17:23;;;;;;;4.60;1.97;;;24.70;48.70;;;;;;4921640;28;90837;-75
2022/05/27 03:20:17;;;;;;;5.60;2.43;;;24.70;48.70;;;;;;4922993;28;90880;-76
2022/05/27 03:22:51;;;;;;;4.77;2.70;;;24.70;49.30;;;;;;4936766;28;88602;-76
2022/05/27 03:25:21;;;;;;;4.33;3.00;;;24.70;48.70;;;;;;4926845;28;88641;-75
2022/05/27 03:28:01;;;;;;;4.47;3.17;;;24.60;48.60;;;;;;4924083;28;88850;-75
2022/05/27 03:30:31;;;;;;;11.57;3.57;;;24.60;48.60;;;;;;4923092;28;89637;-75
2022/05/27 03:33:04;;;;;;;10.03;4.17;;;24.70;48.60;;;;;;4922207;28;88646;-74
2022/05/27 03:35:35;;;;;;;8.23;4.47;;;24.60;48.60;;;;;;4922100;28;88514;-75
2022/05/27 03:38:06;;;;;;;10.30;4.13;;;24.60;48.60;;;;;;4921942;28;91034;-75
2022/05/27 03:40:35;;;;;;;10.70;5.03;;;24.60;48.60;;;;;;4922425;28;90090;-75
2022/05/27 03:43:03;;;;;;;10.40;5.63;;;24.70;48.60;;;;;;4923500;28;88774;-76
2022/05/27 03:45:31;;;;;;;10.67;5.40;;;24.70;48.70;;;;;;4919967;28;89124;-75
2022/05/27 03:48:01;;;;;;;9.87;5.63;;;24.60;48.50;;;;;;4923505;28;89243;-76
2022/05/27 03:50:30;;;;;;;12.50;5.90;;;24.60;49.20;;;;;;4921509;28;90186;-75
2022/05/27 03:52:58;;;;;;;11.37;5.17;;;24.60;48.50;;;;;;4925480;28;88886;-75
2022/05/27 03:55:27;;;;;;;10.43;5.43;;;24.60;48.50;;;;;;4918685;28;88538;-76
2022/05/27 03:57:55;;;;;;;10.77;5.47;;;24.60;48.50;;;;;;4921770;28;92097;-76
2022/05/27 04:00:23;;;;;;;11.37;5.33;;;24.60;48.50;;;;;;4923407;28;92867;-75
2022/05/27 04:02:51;;;;;;;13.30;6.20;;;24.60;48.50;;;;;;4920815;28;89864;-75
2022/05/27 04:05:26;;;;;;;13.27;6.27;;;24.60;48.40;;;;;;4922161;28;88651;-75
2022/05/27 04:07:54;;;;;;;12.57;5.87;;;24.60;48.40;;;;;;4917559;28;88925;-66
2022/05/27 04:10:22;;;;;;;12.80;6.20;;;24.60;48.40;;;;;;4922117;28;88312;-66
2022/05/27 04:12:50;;;;;;;13.03;6.40;;;24.60;48.40;;;;;;4930225;28;89011;-67
2022/05/27 04:15:19;;;;;;;16.10;7.97;;;24.60;48.40;;;;;;4919022;28;88417;-67
2022/05/27 04:17:47;;;;;;;11.50;5.87;;;24.60;48.40;;;;;;4922243;28;91545;-66
2022/05/27 04:20:26;;;;;;;15.70;6.87;;;24.60;48.30;;;;;;4918916;28;88780;-67
2022/05/27 04:22:55;;;;;;;14.87;7.93;;;24.60;48.40;;;;;;4919968;28;91514;-75
2022/05/27 04:25:26;;;;;;;14.10;7.17;;;24.60;48.30;;;;;;4921651;28;88585;-66
2022/05/27 04:27:55;;;;;;;15.27;7.17;;;24.60;48.30;;;;;;4920399;28;90781;-67
2022/05/27 04:30:25;;;;;;;14.37;7.67;;;24.60;48.20;;;;;;4923141;28;90166;-66
2022/05/27 04:32:53;;;;;;;14.80;6.87;;;24.60;48.20;;;;;;4922034;28;89387;-76
2022/05/27 04:35:23;;;;;;;14.10;7.53;;;24.60;48.20;;;;;;4923277;28;88648;-76
2022/05/27 04:37:52;;;;;;;14.23;7.67;;;24.70;48.20;;;;;;4922282;28;93938;-75
2022/05/27 04:40:21;;;;;;;14.30;6.97;;;24.70;48.40;;;;;;4918586;28;90277;-74
2022/05/27 04:42:49;;;;;;;19.77;8.17;;;24.70;48.00;;;;;;4920940;28;88870;-74
2022/05/27 04:45:19;;;;;;;16.10;8.30;;;24.80;48.70;;;;;;4921849;28;88590;-75
2022/05/27 04:47:47;;;;;;;16.87;8.70;;;25.00;47.90;;;;;;4919789;28;89742;-75
2022/05/27 04:50:16;;;;;;;16.63;8.43;;;25.10;47.70;;;;;;4919213;28;91993;-75
2022/05/27 04:52:44;;;;;;;13.23;7.50;;;25.10;47.60;;;;;;4925018;28;88918;-76
2022/05/27 04:55:15;;;;;;;15.43;6.90;;;25.10;47.70;;;;;;4922916;28;88608;-76
2022/05/27 04:57:44;;;;;;;17.57;8.20;;;25.00;47.70;;;;;;4924032;28;90683;-74
2022/05/27 05:00:14;;;;;;;16.60;8.33;;;25.00;47.80;;;;;;4922591;28;93088;-76
2022/05/27 05:02:43;;;;;;;20.23;9.70;;;24.90;47.80;;;;;;4919827;28;89558;-75
2022/05/27 05:05:13;;;;;;;19.60;8.53;;;24.90;47.80;;;;;;4919812;28;88562;-76
2022/05/27 05:07:41;;;;;;;12.77;6.47;;;24.90;47.90;;;;;;4921533;28;90812;-75
2022/05/27 05:10:10;;;;;;;15.20;8.43;;;24.80;47.80;;;;;;4918259;28;88643;-76
2022/05/27 05:12:39;;;;;;;16.53;8.13;;;24.80;47.80;;;;;;4923954;28;88567;-75
2022/05/27 05:15:08;;;;;;;17.80;7.67;;;24.80;47.80;;;;;;4920917;28;88991;-75
2022/05/27 05:17:36;;;;;;;16.23;8.30;;;24.80;47.80;;;;;;4922824;28;89888;-75
2022/05/27 05:20:06;;;;;;;14.27;8.37;;;24.80;47.80;;;;;;4921937;28;89967;-74
2022/05/27 05:22:34;;;;;;;12.30;7.77;;;24.80;47.80;;;;;;4926008;28;89240;-67
2022/05/27 05:25:02;;;;;;;16.23;8.07;;;24.70;47.80;;;;;;4918631;28;88342;-66
2022/05/27 05:27:30;;;;;;;19.30;9.50;;;24.70;47.80;;;;;;4918935;28;90817;-67
2022/05/27 05:30:00;;;;;;;15.30;8.43;;;24.70;47.80;;;;;;4918009;28;89492;-66
2022/05/27 05:32:28;;;;;;;17.83;9.10;;;24.70;47.80;;;;;;4921234;28;88511;-75
2022/05/27 05:34:58;;;;;;;18.13;8.53;;;24.70;47.70;;;;;;4926031;28;88501;-76
2022/05/27 05:37:30;;;;;;;17.53;8.63;;;24.70;47.60;;;;;;4922707;28;89480;-75
2022/05/27 05:39:58;;;;;;;14.67;7.80;;;24.70;47.60;;;;;;4924333;28;89968;-75
2022/05/27 05:42:26;;;;;;;20.37;8.63;;;24.80;47.60;;;;;;4922698;28;90732;-75
2022/05/27 05:44:55;;;;;;;13.90;8.10;;;24.80;47.60;;;;;;4918155;28;88427;-78
2022/05/27 05:47:25;;;;;;;14.37;7.37;;;24.80;47.50;;;;;;4926911;28;93267;-76
2022/05/27 05:49:53;;;;;;;16.90;6.97;;;24.90;47.50;;;;;;4921685;28;90903;-78
2022/05/27 05:52:21;;;;;;;12.17;6.97;;;24.90;47.40;;;;;;4924065;28;89153;-76
2022/05/27 05:54:49;;;;;;;12.77;7.00;;;24.90;47.40;;;;;;4921045;28;88603;-75
2022/05/27 05:57:18;;;;;;;14.03;7.33;;;24.90;47.30;;;;;;4921661;28;89814;-75
2022/05/27 05:59:47;;;;;;;14.17;6.20;;;24.90;47.30;;;;;;4920372;28;92931;-75
2022/05/27 06:02:15;;;;;;;15.87;6.00;;;24.90;47.30;;;;;;4921465;28;89642;-75
2022/05/27 06:04:44;;;;;;;11.53;5.77;;;24.80;47.30;;;;;;4921337;28;88595;-75
2022/05/27 06:07:13;;;;;;;8.80;5.27;;;24.80;47.40;;;;;;4923109;28;91658;-74
2022/05/27 06:09:41;;;;;;;10.93;5.17;;;24.80;47.30;;;;;;4920553;28;92193;-75
2022/05/27 06:12:10;;;;;;;12.57;4.97;;;24.80;47.40;;;;;;4922570;28;89956;-75
2022/05/27 06:14:38;;;;;;;8.90;4.50;;;24.70;47.30;;;;;;4923997;28;88641;-75
2022/05/27 06:17:06;;;;;;;9.27;4.57;;;24.80;47.40;;;;;;4926139;28;91117;-74
2022/05/27 06:19:34;;;;;;;10.63;5.00;;;24.70;47.30;;;;;;4924185;28;92872;-75
2022/05/27 06:22:04;;;;;;;6.87;3.73;;;24.70;47.30;;;;;;4921415;28;89230;-76
2022/05/27 06:24:33;;;;;;;6.17;3.63;;;24.70;47.30;;;;;;4924876;28;88309;-75
2022/05/27 06:27:01;;;;;;;8.37;4.20;;;24.70;47.30;;;;;;4925345;28;90968;-76
2022/05/27 06:35:00;;;;;;;7.47;3.23;;;24.70;47.30;;;;;;4922355;28;88625;-74
2022/05/27 06:37:29;;;;;;;6.60;2.97;;;24.70;47.30;;;;;;4923666;28;90647;-75
2022/05/27 06:39:58;;;;;;;6.87;3.37;;;24.70;47.30;;;;;;4923764;28;89036;-75
2022/05/27 06:42:27;;;;;;;6.57;2.87;;;24.70;47.30;;;;;;4924418;28;88373;-73
2022/05/27 06:45:05;;;;;;;4.07;2.60;;;24.80;47.30;;;;;;4924850;28;88617;-75
2022/05/27 06:47:33;;;;;;;6.60;2.37;;;24.80;47.30;;;;;;4925249;28;89360;-74
2022/05/27 06:50:01;;;;;;;5.17;2.67;;;24.80;47.20;;;;;;4922796;28;91687;-75
2022/05/27 06:52:31;;;;;;;6.40;2.20;;;24.90;47.20;;;;;;4923213;28;88553;-76
2022/05/27 06:55:00;;;;;;;5.87;2.13;;;24.90;47.20;;;;;;4922176;28;88630;-76
2022/05/27 06:57:29;;;;;;;5.13;2.70;;;24.90;47.10;;;;;;4925039;28;90125;-75
2022/05/27 06:59:58;;;;;;;3.73;2.13;;;24.90;47.00;;;;;;4923209;28;89084;-75
2022/05/27 07:02:26;;;;;;;5.07;1.80;;;24.90;47.00;;;;;;4952971;28;88867;-74
2022/05/27 07:04:54;;;;;;;4.57;2.47;;;24.90;47.00;;;;;;4925121;28;88946;-76
2022/05/27 07:07:26;;;;;;;5.00;2.40;;;24.90;46.90;;;;;;4923436;28;90732;-76
2022/05/27 07:09:55;;;;;;;6.57;2.10;;;24.90;46.90;;;;;;4923820;28;89576;-77
2022/05/27 07:12:24;;;;;;;8.73;2.40;;;24.90;47.00;;;;;;4920343;28;91517;-75
2022/05/27 07:14:52;;;;;;;5.07;2.30;;;24.90;47.00;;;;;;4924732;28;88464;-75
2022/05/27 07:17:21;;;;;;;8.00;1.90;;;24.90;47.00;;;;;;4923761;28;89460;-75
2022/05/27 07:19:49;;;;;;;1.80;1.33;;;24.90;47.00;;;;;;4920691;28;90255;-78
2022/05/27 07:22:18;;;;;;;3.67;1.60;;;25.00;47.00;;;;;;4921704;28;88680;-73
2022/05/27 07:24:46;;;;;;;8.93;2.20;;;25.00;47.00;;;;;;4920712;28;88394;-76
2022/05/27 07:27:15;;;;;;;2.77;1.60;;;24.90;47.10;;;;;;4923416;28;90842;-76
2022/05/27 07:29:43;;;;;;;4.57;1.87;;;25.00;47.30;;;;;;4923540;28;90595;-77
2022/05/27 07:32:11;;;;;;;7.43;2.03;;;25.00;47.90;;;;;;4922420;28;88836;-76
2022/05/27 07:34:40;;;;;;;3.93;1.40;;;25.00;47.90;;;;;;4925074;28;88498;-75
2022/05/27 07:37:13;;;;;;;4.97;1.80;;;24.90;47.20;;;;;;4922889;28;89274;-77
2022/05/27 07:39:41;;;;;;;2.10;1.57;;;25.00;47.30;;;;;;4921303;28;88856;-76
2022/05/27 07:42:09;;;;;;;3.10;1.63;;;24.90;47.30;;;;;;4923371;28;88881;-77
2022/05/27 07:44:40;;;;;;;5.00;1.60;;;24.90;47.30;;;;;;4923346;28;88620;-76
2022/05/27 07:47:08;;;;;;;5.63;1.63;;;24.90;47.30;;;;;;4918277;28;92422;-77
2022/05/27 07:49:36;;;;;;;2.50;1.40;;;24.90;47.30;;;;;;4920468;28;89379;-76
2022/05/27 07:52:06;;;;;;;3.00;1.63;;;24.90;47.20;;;;;;4920293;28;88887;-74
2022/05/27 07:54:34;;;;;;;2.13;1.07;;;24.90;47.20;;;;;;4921093;28;88369;-76
2022/05/27 07:57:02;;;;;;;4.97;2.10;;;24.90;47.20;;;;;;4921784;28;90709;-75
2022/05/27 07:59:32;;;;;;;2.63;1.17;;;24.90;47.20;;;;;;4922590;28;89213;-75
2022/05/27 08:02:02;;;;;;;2.30;1.67;;;25.00;47.40;;;;;;4922554;28;88956;-76
2022/05/27 08:04:30;;;;;;;1.90;0.87;;;25.00;47.40;;;;;;4922841;28;88312;-76
2022/05/27 08:06:58;;;;;;;3.90;1.40;;;25.00;47.50;;;;;;4920007;28;93677;-73
2022/05/27 08:09:26;;;;;;;3.53;1.50;;;25.10;47.50;;;;;;4922966;28;90011;-76
2022/05/27 08:11:55;;;;;;;4.20;1.47;;;25.10;47.50;;;;;;4921163;28;89036;-77
2022/05/27 08:14:23;;;;;;;1.47;0.97;;;25.10;47.50;;;;;;4919678;28;88638;-76
2022/05/27 08:16:51;;;;;;;1.80;1.13;;;25.10;47.40;;;;;;4921552;28;90709;-76
2022/05/27 08:19:21;;;;;;;4.37;1.30;;;25.10;47.30;;;;;;4918632;28;88689;-76
2022/05/27 08:21:49;;;;;;;0.90;0.70;;;25.10;47.30;;;;;;4916710;28;89270;-77
2022/05/27 08:24:17;;;;;;;3.10;1.30;;;25.10;47.20;;;;;;4919158;28;88499;-75
2022/05/27 08:26:46;;;;;;;2.07;0.97;;;25.20;47.10;;;;;;4921266;28;89488;-76
2022/05/27 08:29:15;;;;;;;3.80;0.90;;;25.20;47.10;;;;;;4919891;28;89489;-75
2022/05/27 08:31:43;;;;;;;2.40;0.73;;;25.20;47.10;;;;;;4923311;28;88410;-75
2022/05/27 08:39:58;;;;;;;2.67;1.10;;;25.10;47.00;;;;;;4895674;28;90171;-75
2022/05/27 08:42:30;;;;;;;1.07;0.97;;;25.10;47.00;;;;;;4911077;28;89130;-73
2022/05/27 08:45:01;;;;;;;1.37;0.83;;;25.10;47.00;;;;;;4922851;28;88544;-75
2022/05/27 08:47:33;;;;;;;2.20;1.00;;;25.10;46.90;;;;;;4917413;28;90712;-74
2022/05/27 08:50:07;;;;;;;1.50;0.60;;;25.10;46.80;;;;;;4921667;28;89616;-76
2022/05/27 08:52:39;;;;;;;3.17;0.77;;;25.10;46.70;;;;;;4924217;28;89577;-75
2022/05/27 08:59:26;;;;;;;3.83;0.90;;;25.20;46.70;;;;;;4917150;28;88567;-76
2022/05/27 09:00:44;;;;;;;5.10;1.03;;;25.20;46.60;;;;;;4919269;28;89324;-76
2022/05/27 09:03:12;;;;;;;2.27;1.10;;;25.20;46.60;;;;;;4921096;28;91550;-75
2022/05/27 09:05:42;;;;;;;11.33;2.80;;;25.20;46.50;;;;;;4923022;28;89072;-74
2022/05/27 09:08:17;;;;;;;8.07;2.63;;;25.20;46.50;;;;;;4918271;28;92322;-76
2022/05/27 09:10:54;;;;;;;8.07;2.80;;;25.30;46.60;;;;;;4919495;28;89328;-76
2022/05/27 09:13:23;;;;;;;9.57;2.80;;;25.40;46.50;;;;;;4918794;28;88417;-75
2022/05/27 09:15:54;;;;;;;5.00;2.23;;;25.40;46.40;;;;;;4921148;28;88510;-75
2022/05/27 09:18:29;;;;;;;4.60;1.67;;;25.50;46.40;;;;;;4918462;28;88601;-76
2022/05/27 09:21:06;;;;;;;5.93;1.63;;;25.50;46.30;;;;;;4920733;28;89074;-76
2022/05/27 09:23:56;;;;;;;4.50;1.70;;;25.50;46.20;;;;;;4918552;28;91241;-75
2022/05/27 09:26:27;;;;;;;5.53;1.47;;;25.50;46.10;;;;;;4920555;28;88699;-75
2022/05/27 09:28:59;;;;;;;6.87;2.13;;;25.50;46.00;;;;;;4919066;28;91755;-75
2022/05/27 09:31:31;;;;;;;4.33;2.03;;;25.50;45.90;;;;;;4919798;28;89086;-75
2022/05/27 09:34:00;;;;;;;4.73;1.93;;;25.50;45.90;;;;;;4917823;28;91852;-75
2022/05/27 09:36:34;;;;;;;5.43;2.33;;;25.50;45.80;;;;;;4916583;28;88954;-75
2022/05/27 09:39:05;;;;;;;7.70;2.93;;;25.50;45.70;;;;;;4914982;28;91602;-75
2022/05/27 09:41:37;;;;;;;10.60;3.33;;;25.50;45.50;;;;;;4918809;28;91146;-75
2022/05/27 09:44:12;;;;;;;9.13;3.50;;;25.50;45.40;;;;;;4919931;28;89207;-75
2022/05/27 09:46:40;;;;;;;6.90;2.70;;;25.50;45.40;;;;;;4920116;28;88664;-75
2022/05/27 09:49:09;;;;;;;9.73;3.70;;;25.50;46.00;;;;;;4924267;28;89742;-75
2022/05/27 09:51:37;;;;;;;7.43;3.50;;;25.50;45.30;;;;;;4923698;28;89482;-75
2022/05/27 09:54:19;;;;;;;6.30;3.07;;;25.50;45.20;;;;;;4923826;28;88469;-75
2022/05/27 09:56:56;;;;;;;6.97;3.03;;;25.50;45.20;;;;;;4921472;28;88612;-75
2022/05/27 09:59:25;;;;;;;12.23;4.27;;;25.50;45.10;;;;;;4921546;28;92830;-75
2022/05/27 10:02:13;;;;;;;12.57;5.00;;;25.50;45.10;;;;;;4924926;28;91285;-75
2022/05/27 10:04:53;;;;;;;9.43;4.33;;;25.50;45.00;;;;;;4924649;28;89409;-75
2022/05/27 10:07:29;;;;;;;14.50;5.60;;;25.50;45.00;;;;;;4924858;28;88532;-75
2022/05/27 10:09:58;;;;;;;11.20;4.83;;;25.50;44.90;;;;;;4924505;28;91137;-75
2022/05/27 10:12:29;;;;;;;8.70;4.03;;;25.50;44.80;;;;;;4924191;28;90300;-75
2022/05/27 10:14:57;;;;;;;8.73;4.23;;;25.50;44.70;;;;;;4935946;28;88946;-75
2022/05/27 10:17:31;;;;;;;10.87;5.43;;;25.50;44.60;;;;;;4944802;28;88687;-75
2022/05/27 10:20:15;;;;;;;9.27;4.47;;;25.50;44.60;;;;;;4929091;28;89523;-75
2022/05/27 10:22:43;;;;;;;11.87;4.30;;;25.50;44.60;;;;;;4923596;28;91055;-75
2022/05/27 10:25:13;;;;;;;10.70;5.20;;;25.50;44.50;;;;;;4927857;28;90110;-75
2022/05/27 10:27:43;;;;;;;11.53;5.07;;;25.50;44.40;;;;;;4931974;28;88527;-75
2022/05/27 10:30:20;;;;;;;9.43;4.77;;;25.50;45.10;;;;;;4932311;28;90757;-75
2022/05/27 10:32:48;;;;;;;10.50;5.47;;;25.50;44.40;;;;;;4924435;28;90195;-77
2022/05/27 10:35:32;;;;;;;9.23;3.53;;;25.50;44.30;;;;;;4924097;28;89204;-76
2022/05/27 10:38:10;;;;;;;7.00;3.30;;;25.50;44.30;;;;;;4929550;28;88745;-74
2022/05/27 10:40:41;;;;;;;6.87;3.33;;;25.50;44.10;;;;;;4927786;28;89471;-74
2022/05/27 10:43:29;;;;;;;6.20;2.63;;;25.40;43.90;;;;;;4924765;28;93017;-75
2022/05/27 10:45:57;;;;;;;9.70;3.37;;;25.40;43.80;;;;;;4926739;28;88844;-75
2022/05/27 10:48:40;;;;;;;6.07;2.20;;;25.30;43.70;;;;;;4943597;28;88449;-75
2022/05/27 10:51:11;;;;;;;5.63;2.70;;;25.20;43.40;;;;;;4910861;28;90544;-75
2022/05/27 10:53:48;;;;;;;8.10;2.43;;;25.20;43.30;;;;;;4943447;28;89985;-75
2022/05/27 10:56:26;;;;;;;4.80;1.90;;;25.20;43.30;;;;;;4925314;28;88520;-75
2022/05/27 11:02:06;;;;;;;8.87;3.70;;;25.20;43.10;;;;;;4926237;28;90009;-75
2022/05/27 11:05:06;;;;;;;9.23;4.27;;;25.20;42.90;;;;;;4920249;28;90381;-74
2022/05/27 11:07:38;;;;;;;10.20;4.27;;;25.20;42.90;;;;;;4924831;28;88774;-74
2022/05/27 11:10:27;;;;;;;33.37;15.83;;;25.30;42.80;;;;;;4932390;28;88535;-75
2022/05/27 11:16:00;;;;;;;96.03;57.30;;;25.40;42.70;;;;;;4941700;28;89397;-75
2022/05/27 11:18:37;;;;;;;70.53;37.47;;;25.40;42.50;;;;;;4929398;28;88602;-76
2022/05/27 11:21:25;;;;;;;31.40;19.30;;;25.40;42.30;;;;;;4924491;28;88638;-74
2022/05/27 11:24:04;;;;;;;29.10;15.40;;;25.40;42.10;;;;;;4923509;28;90187;-74
2022/05/27 11:26:39;;;;;;;22.93;13.27;;;25.30;41.90;;;;;;4925975;28;89241;-75
2022/05/27 11:29:29;;;;;;;23.77;13.47;;;25.30;41.90;;;;;;4924706;28;88434;-75
2022/05/27 11:32:02;;;;;;;21.87;11.73;;;25.40;42.00;;;;;;4923832;28;88676;-75
2022/05/27 11:34:32;;;;;;;21.80;11.57;;;25.50;41.90;;;;;;4922781;28;89681;-74
2022/05/27 11:37:24;;;;;;;17.73;9.77;;;25.50;41.90;;;;;;4922665;28;89952;-75
2022/05/27 11:40:02;;;;;;;17.17;9.07;;;25.50;42.00;;;;;;4922071;28;91330;-75
2022/05/27 11:42:44;;;;;;;15.73;8.93;;;25.60;41.80;;;;;;4921046;28;88452;-75
2022/05/27 11:45:18;;;;;;;16.80;8.23;;;25.50;41.70;;;;;;4920105;28;90495;-76
2022/05/27 11:48:06;;;;;;;11.40;6.97;;;25.60;41.80;;;;;;4920293;28;89499;-75
2022/05/27 11:50:58;;;;;;;14.03;8.10;;;25.60;41.90;;;;;;4919372;28;88816;-75
2022/05/27 11:53:43;;;;;;;15.60;7.47;;;25.60;41.90;;;;;;4920791;28;88192;-76
2022/05/27 11:56:16;;;;;;;15.63;7.67;;;25.60;41.90;;;;;;4923120;28;88508;-75
2022/05/27 11:58:50;;;;;;;18.27;8.20;;;25.70;42.00;;;;;;4918042;28;89013;-75
2022/05/27 12:01:26;;;;;;;15.50;7.07;;;25.70;42.00;;;;;;4921997;28;88571;-75
2022/05/27 12:03:58;;;;;;;15.30;7.63;;;25.70;42.00;;;;;;4921691;28;88483;-75
2022/05/27 12:06:30;;;;;;;15.83;7.77;;;25.80;42.10;;;;;;4919343;28;89047;-74
2022/05/27 12:09:01;;;;;;;15.53;7.73;;;25.80;42.10;;;;;;4921378;28;89194;-76
2022/05/27 12:11:34;;;;;;;18.27;8.93;;;25.80;42.20;;;;;;4918966;28;90042;-77
2022/05/27 12:14:04;;;;;;;19.03;8.63;;;25.80;42.20;;;;;;4921271;28;88694;-78
2022/05/27 12:16:37;;;;;;;15.77;8.37;;;25.80;42.20;;;;;;4919328;28;90245;-78
2022/05/27 12:19:07;;;;;;;21.20;8.70;;;25.80;42.30;;;;;;4918793;28;88381;-78
2022/05/27 12:21:38;;;;;;;19.47;8.87;;;25.90;42.30;;;;;;4920802;28;88916;-78
2022/05/27 12:24:11;;;;;;;23.00;10.37;;;25.90;42.40;;;;;;4923190;28;88632;-79
2022/05/27 12:26:40;;;;;;;17.63;9.20;;;25.90;42.40;;;;;;4922132;28;90400;-78
2022/05/27 12:29:10;;;;;;;24.37;10.67;;;25.90;42.40;;;;;;4922786;28;89045;-77
2022/05/27 12:31:39;;;;;;;22.87;11.53;;;25.90;42.40;;;;;;4921991;28;88314;-78
2022/05/27 12:34:36;;;;;;;19.50;11.77;;;25.90;42.40;;;;;;4921720;28;89354;-79
2022/05/27 12:37:16;;;;;;;23.57;12.40;;;25.90;42.40;;;;;;4921554;28;89367;-78
2022/05/27 12:39:45;;;;;;;21.40;11.13;;;25.90;42.40;;;;;;4921785;28;88515;-78
2022/05/27 12:42:17;;;;;;;22.10;12.80;;;25.90;42.40;;;;;;4921194;28;88490;-77
2022/05/27 12:44:46;;;;;;;21.47;12.10;;;25.90;42.40;;;;;;4922175;28;88493;-79
2022/05/27 12:47:17;;;;;;;20.53;12.97;;;25.90;42.30;;;;;;4922186;28;88292;-79
2022/05/27 12:49:47;;;;;;;25.93;14.67;;;25.90;42.40;;;;;;4922172;28;88846;-79
2022/05/27 12:52:44;;;;;;;27.00;14.93;;;25.90;42.40;;;;;;4922033;28;88468;-79
2022/05/27 12:55:13;;;;;;;25.37;14.73;;;25.90;42.40;;;;;;4930509;28;88618;-78
2022/05/27 13:00:59;;;;;;;26.40;13.43;;;25.90;42.50;;;;;;4919923;28;90160;-76
2022/05/27 13:03:48;;;;;;;27.80;13.37;;;25.90;42.40;;;;;;4923413;28;90022;-78
2022/05/27 13:06:35;;;;;;;23.33;12.83;;;25.90;42.40;;;;;;4923016;28;88720;-79
2022/05/27 13:09:05;;;;;;;28.13;14.10;;;25.90;42.40;;;;;;4918354;28;91450;-78
2022/05/27 13:11:48;;;;;;;22.57;12.07;;;26.00;42.40;;;;;;4919082;28;89090;-78
2022/05/27 13:14:20;;;;;;;17.67;10.47;;;26.00;42.40;;;;;;4917021;28;91119;-79
2022/05/27 13:17:01;;;;;;;21.63;11.40;;;26.00;42.30;;;;;;4920004;28;88447;-78
2022/05/27 13:19:34;;;;;;;20.83;10.93;;;26.00;42.30;;;;;;4933377;28;89628;-78
2022/05/27 13:22:04;;;;;;;25.03;14.03;;;26.10;42.30;;;;;;4923525;28;89599;-78
2022/05/27 13:24:34;;;;;;;22.10;11.57;;;26.10;42.30;;;;;;4933898;28;88973;-78
2022/05/27 13:27:09;;;;;;;20.03;10.83;;;26.10;42.20;;;;;;4925564;28;88656;-79
2022/05/27 13:29:43;;;;;;;22.50;11.10;;;26.10;42.30;;;;;;4926250;28;90371;-79
2022/05/27 13:32:15;;;;;;;22.90;11.77;;;26.10;42.00;;;;;;4934531;28;89285;-75
2022/05/27 13:34:46;;;;;;;18.03;10.70;;;26.10;42.00;;;;;;4944118;28;89707;-75